sensor_id;sensor_type;location;lat;lon;timestamp;temperature;humidity
52709;DHT22;38606;52.986;6.980;2023-05-24T00:01:17;9.40;99.90
52709;DHT22;38606;52.986;6.980;2023-05-24T00:03:54;9.30;99.90
52709;DHT22;38606;52.986;6.980;2023-05-24T00:06:26;9.50;99.90
52709;DHT22;38606;52.986;6.980;2023-05-24T00:08:52;9.20;99.90
52709;DHT22;38606;52.986;6.980;2023-05-24T00:11:18;9.40;99.90
52709;DHT22;38606;52.986;6.980;2023-05-24T00:13:45;9.40;99.90
52709;DHT22;38606;52.986;6.980;2023-05-24T00:16:11;9.30;99.90
52709;DHT22;38606;52.986;6.980;2023-05-24T00:18:36;9.50;99.90
52709;DHT22;38606;52.986;6.980;2023-05-24T00:21:09;9.50;99.90
52709;DHT22;38606;52.986;6.980;2023-05-24T00:23:35;9.40;99.90
52709;DHT22;38606;52.986;6.980;2023-05-24T00:26:05;9.30;99.90
52709;DHT22;38606;52.986;6.980;2023-05-24T00:28:31;9.20;99.90
52709;DHT22;38606;52.986;6.980;2023-05-24T00:30:57;9.30;99.90
52709;DHT22;38606;52.986;6.980;2023-05-24T00:33:23;9.10;99.90
52709;DHT22;38606;52.986;6.980;2023-05-24T00:35:53;9.20;99.90
52709;DHT22;38606;52.986;6.980;2023-05-24T00:38:30;9.20;99.90
52709;DHT22;38606;52.986;6.980;2023-05-24T00:40:55;9.00;99.90
52709;DHT22;38606;52.986;6.980;2023-05-24T00:43:22;9.10;99.90
52709;DHT22;38606;52.986;6.980;2023-05-24T00:46:15;9.10;99.90
52709;DHT22;38606;52.986;6.980;2023-05-24T00:48:41;9.00;99.90
52709;DHT22;38606;52.986;6.980;2023-05-24T00:51:07;9.00;99.90
52709;DHT22;38606;52.986;6.980;2023-05-24T00:53:35;8.90;99.90
52709;DHT22;38606;52.986;6.980;2023-05-24T00:56:02;9.00;99.90
52709;DHT22;38606;52.986;6.980;2023-05-24T00:58:29;9.20;99.90
52709;DHT22;38606;52.986;6.980;2023-05-24T01:01:00;8.90;99.90
52709;DHT22;38606;52.986;6.980;2023-05-24T01:03:26;9.00;99.90
52709;DHT22;38606;52.986;6.980;2023-05-24T01:06:00;8.90;99.90
52709;DHT22;38606;52.986;6.980;2023-05-24T01:13:51;8.90;99.90
52709;DHT22;38606;52.986;6.980;2023-05-24T01:16:28;8.80;99.90
52709;DHT22;38606;52.986;6.980;2023-05-24T01:19:00;8.90;99.90
52709;DHT22;38606;52.986;6.980;2023-05-24T01:24:35;8.70;99.90
52709;DHT22;38606;52.986;6.980;2023-05-24T01:27:07;9.00;99.90
52709;DHT22;38606;52.986;6.980;2023-05-24T01:29:34;8.70;99.90
52709;DHT22;38606;52.986;6.980;2023-05-24T01:32:01;8.80;99.90
52709;DHT22;38606;52.986;6.980;2023-05-24T01:34:27;8.80;99.90
52709;DHT22;38606;52.986;6.980;2023-05-24T01:36:53;9.00;99.90
52709;DHT22;38606;52.986;6.980;2023-05-24T01:39:19;8.80;99.90
52709;DHT22;38606;52.986;6.980;2023-05-24T01:44:48;9.00;99.90
52709;DHT22;38606;52.986;6.980;2023-05-24T01:50:06;9.00;99.90
52709;DHT22;38606;52.986;6.980;2023-05-24T01:52:34;9.10;99.90
52709;DHT22;38606;52.986;6.980;2023-05-24T01:55:02;9.00;99.90
52709;DHT22;38606;52.986;6.980;2023-05-24T01:57:28;9.20;99.90
52709;DHT22;38606;52.986;6.980;2023-05-24T01:59:55;9.00;99.90
52709;DHT22;38606;52.986;6.980;2023-05-24T02:02:21;8.90;99.90
52709;DHT22;38606;52.986;6.980;2023-05-24T02:04:48;9.20;99.90
52709;DHT22;38606;52.986;6.980;2023-05-24T02:07:13;9.20;99.90
52709;DHT22;38606;52.986;6.980;2023-05-24T02:09:39;9.30;99.90
52709;DHT22;38606;52.986;6.980;2023-05-24T02:12:05;9.20;99.90
52709;DHT22;38606;52.986;6.980;2023-05-24T02:14:31;9.40;99.90
52709;DHT22;38606;52.986;6.980;2023-05-24T02:16:57;9.20;99.90
52709;DHT22;38606;52.986;6.980;2023-05-24T02:19:24;9.00;99.90
52709;DHT22;38606;52.986;6.980;2023-05-24T02:21:50;9.30;99.90
52709;DHT22;38606;52.986;6.980;2023-05-24T02:24:16;9.30;99.90
52709;DHT22;38606;52.986;6.980;2023-05-24T02:26:43;9.20;99.90
52709;DHT22;38606;52.986;6.980;2023-05-24T02:29:09;9.30;99.90
52709;DHT22;38606;52.986;6.980;2023-05-24T02:31:35;9.40;99.90
52709;DHT22;38606;52.986;6.980;2023-05-24T02:34:01;9.30;99.90
52709;DHT22;38606;52.986;6.980;2023-05-24T02:36:27;9.20;99.90
52709;DHT22;38606;52.986;6.980;2023-05-24T02:38:52;9.30;99.90
52709;DHT22;38606;52.986;6.980;2023-05-24T02:41:19;8.70;99.90
52709;DHT22;38606;52.986;6.980;2023-05-24T02:43:45;9.20;99.90
52709;DHT22;38606;52.986;6.980;2023-05-24T02:46:11;9.20;99.90
52709;DHT22;38606;52.986;6.980;2023-05-24T02:48:37;9.10;99.90
52709;DHT22;38606;52.986;6.980;2023-05-24T02:51:03;9.00;99.90
52709;DHT22;38606;52.986;6.980;2023-05-24T02:53:29;9.10;99.90
52709;DHT22;38606;52.986;6.980;2023-05-24T02:55:56;9.30;99.90
52709;DHT22;38606;52.986;6.980;2023-05-24T02:58:22;9.20;99.90
52709;DHT22;38606;52.986;6.980;2023-05-24T03:00:50;9.00;99.90
52709;DHT22;38606;52.986;6.980;2023-05-24T03:03:15;9.20;99.90
52709;DHT22;38606;52.986;6.980;2023-05-24T03:05:41;9.10;99.90
52709;DHT22;38606;52.986;6.980;2023-05-24T03:08:07;9.20;99.90
52709;DHT22;38606;52.986;6.980;2023-05-24T03:10:33;9.00;99.90
52709;DHT22;38606;52.986;6.980;2023-05-24T03:12:58;9.20;99.90
52709;DHT22;38606;52.986;6.980;2023-05-24T03:15:25;9.20;99.90
52709;DHT22;38606;52.986;6.980;2023-05-24T03:17:51;9.10;99.90
52709;DHT22;38606;52.986;6.980;2023-05-24T03:20:17;9.20;99.90
52709;DHT22;38606;52.986;6.980;2023-05-24T03:22:42;9.50;99.90
52709;DHT22;38606;52.986;6.980;2023-05-24T03:25:08;9.50;99.90
52709;DHT22;38606;52.986;6.980;2023-05-24T03:27:35;9.20;99.90
52709;DHT22;38606;52.986;6.980;2023-05-24T03:30:01;9.40;99.90
52709;DHT22;38606;52.986;6.980;2023-05-24T03:32:27;9.30;99.90
52709;DHT22;38606;52.986;6.980;2023-05-24T03:34:53;9.30;99.90
52709;DHT22;38606;52.986;6.980;2023-05-24T03:37:19;9.70;99.90
52709;DHT22;38606;52.986;6.980;2023-05-24T03:39:45;9.30;99.90
52709;DHT22;38606;52.986;6.980;2023-05-24T03:42:11;9.60;99.90
52709;DHT22;38606;52.986;6.980;2023-05-24T03:44:37;9.70;99.90
52709;DHT22;38606;52.986;6.980;2023-05-24T03:47:03;9.50;99.90
52709;DHT22;38606;52.986;6.980;2023-05-24T03:49:29;9.60;99.90
52709;DHT22;38606;52.986;6.980;2023-05-24T03:51:55;9.60;99.90
52709;DHT22;38606;52.986;6.980;2023-05-24T03:54:20;9.50;99.90
52709;DHT22;38606;52.986;6.980;2023-05-24T03:56:46;9.70;99.90
52709;DHT22;38606;52.986;6.980;2023-05-24T03:59:12;9.80;99.90
52709;DHT22;38606;52.986;6.980;2023-05-24T04:01:38;9.80;99.90
52709;DHT22;38606;52.986;6.980;2023-05-24T04:04:04;9.70;99.90
52709;DHT22;38606;52.986;6.980;2023-05-24T04:06:30;9.50;99.90
52709;DHT22;38606;52.986;6.980;2023-05-24T04:08:57;9.70;99.90
52709;DHT22;38606;52.986;6.980;2023-05-24T04:11:23;9.90;99.90
52709;DHT22;38606;52.986;6.980;2023-05-24T04:13:53;9.70;99.90
52709;DHT22;38606;52.986;6.980;2023-05-24T04:16:21;9.60;99.90
52709;DHT22;38606;52.986;6.980;2023-05-24T04:18:49;9.80;99.90
52709;DHT22;38606;52.986;6.980;2023-05-24T04:21:15;9.90;99.90
52709;DHT22;38606;52.986;6.980;2023-05-24T04:23:41;9.50;99.90
52709;DHT22;38606;52.986;6.980;2023-05-24T04:26:07;9.80;99.90
52709;DHT22;38606;52.986;6.980;2023-05-24T04:28:35;9.70;99.90
52709;DHT22;38606;52.986;6.980;2023-05-24T04:31:04;9.90;99.90
52709;DHT22;38606;52.986;6.980;2023-05-24T04:33:34;10.00;99.90
52709;DHT22;38606;52.986;6.980;2023-05-24T04:35:59;10.00;99.90
52709;DHT22;38606;52.986;6.980;2023-05-24T04:38:28;10.10;99.90
52709;DHT22;38606;52.986;6.980;2023-05-24T04:40:59;10.20;99.90
52709;DHT22;38606;52.986;6.980;2023-05-24T04:43:25;10.10;99.90
52709;DHT22;38606;52.986;6.980;2023-05-24T04:45:52;10.20;99.90
52709;DHT22;38606;52.986;6.980;2023-05-24T04:48:21;10.50;99.90
52709;DHT22;38606;52.986;6.980;2023-05-24T04:50:55;10.40;99.90
52709;DHT22;38606;52.986;6.980;2023-05-24T04:53:21;10.70;99.90
52709;DHT22;38606;52.986;6.980;2023-05-24T04:55:48;10.80;99.90
52709;DHT22;38606;52.986;6.980;2023-05-24T04:58:14;10.80;99.90
52709;DHT22;38606;52.986;6.980;2023-05-24T05:00:41;11.10;99.90
52709;DHT22;38606;52.986;6.980;2023-05-24T05:03:07;11.00;99.90
52709;DHT22;38606;52.986;6.980;2023-05-24T05:05:33;11.10;99.90
52709;DHT22;38606;52.986;6.980;2023-05-24T05:07:59;11.50;99.90
52709;DHT22;38606;52.986;6.980;2023-05-24T05:10:25;11.40;99.90
52709;DHT22;38606;52.986;6.980;2023-05-24T05:12:51;11.30;99.90
52709;DHT22;38606;52.986;6.980;2023-05-24T05:15:18;11.60;99.90
52709;DHT22;38606;52.986;6.980;2023-05-24T05:17:44;11.60;99.90
52709;DHT22;38606;52.986;6.980;2023-05-24T05:20:10;11.70;99.90
52709;DHT22;38606;52.986;6.980;2023-05-24T05:22:35;11.80;99.90
52709;DHT22;38606;52.986;6.980;2023-05-24T05:25:01;12.20;99.90
52709;DHT22;38606;52.986;6.980;2023-05-24T05:27:28;12.30;99.90
52709;DHT22;38606;52.986;6.980;2023-05-24T05:29:54;12.30;99.90
52709;DHT22;38606;52.986;6.980;2023-05-24T05:32:20;12.20;99.90
52709;DHT22;38606;52.986;6.980;2023-05-24T05:34:46;12.50;99.90
52709;DHT22;38606;52.986;6.980;2023-05-24T05:37:12;12.40;99.90
52709;DHT22;38606;52.986;6.980;2023-05-24T05:39:37;12.30;99.90
52709;DHT22;38606;52.986;6.980;2023-05-24T05:42:03;12.70;99.90
52709;DHT22;38606;52.986;6.980;2023-05-24T05:44:29;12.70;99.90
52709;DHT22;38606;52.986;6.980;2023-05-24T05:46:55;13.00;99.90
52709;DHT22;38606;52.986;6.980;2023-05-24T05:49:21;12.80;99.90
52709;DHT22;38606;52.986;6.980;2023-05-24T05:51:46;12.80;99.90
52709;DHT22;38606;52.986;6.980;2023-05-24T05:54:12;12.50;99.90
52709;DHT22;38606;52.986;6.980;2023-05-24T05:56:44;13.20;99.90
52709;DHT22;38606;52.986;6.980;2023-05-24T05:59:11;13.20;99.90
52709;DHT22;38606;52.986;6.980;2023-05-24T06:01:38;13.20;99.90
52709;DHT22;38606;52.986;6.980;2023-05-24T06:04:04;13.10;99.90
52709;DHT22;38606;52.986;6.980;2023-05-24T06:06:29;12.90;99.90
52709;DHT22;38606;52.986;6.980;2023-05-24T06:08:55;13.20;99.90
52709;DHT22;38606;52.986;6.980;2023-05-24T06:11:21;13.00;99.90
52709;DHT22;38606;52.986;6.980;2023-05-24T06:13:48;13.10;99.90
52709;DHT22;38606;52.986;6.980;2023-05-24T06:16:14;12.90;99.90
52709;DHT22;38606;52.986;6.980;2023-05-24T06:18:40;13.80;99.90
52709;DHT22;38606;52.986;6.980;2023-05-24T06:21:06;13.10;99.90
52709;DHT22;38606;52.986;6.980;2023-05-24T06:23:35;13.20;99.90
52709;DHT22;38606;52.986;6.980;2023-05-24T06:26:03;13.20;99.90
52709;DHT22;38606;52.986;6.980;2023-05-24T06:28:29;13.60;99.90
52709;DHT22;38606;52.986;6.980;2023-05-24T06:30:54;13.80;99.90
52709;DHT22;38606;52.986;6.980;2023-05-24T06:33:20;13.90;99.90
52709;DHT22;38606;52.986;6.980;2023-05-24T06:35:47;13.80;99.90
52709;DHT22;38606;52.986;6.980;2023-05-24T06:38:13;13.80;99.90
52709;DHT22;38606;52.986;6.980;2023-05-24T06:40:39;13.90;99.90
52709;DHT22;38606;52.986;6.980;2023-05-24T06:43:05;13.60;99.90
52709;DHT22;38606;52.986;6.980;2023-05-24T06:45:30;13.70;99.90
52709;DHT22;38606;52.986;6.980;2023-05-24T06:47:56;13.40;99.90
52709;DHT22;38606;52.986;6.980;2023-05-24T06:50:22;13.30;99.90
52709;DHT22;38606;52.986;6.980;2023-05-24T06:52:48;13.40;99.90
52709;DHT22;38606;52.986;6.980;2023-05-24T06:55:14;13.20;99.90
52709;DHT22;38606;52.986;6.980;2023-05-24T06:57:40;12.90;99.90
52709;DHT22;38606;52.986;6.980;2023-05-24T07:00:07;13.00;99.90
52709;DHT22;38606;52.986;6.980;2023-05-24T07:02:39;13.00;99.90
52709;DHT22;38606;52.986;6.980;2023-05-24T07:05:06;13.10;99.90
52709;DHT22;38606;52.986;6.980;2023-05-24T07:07:42;13.20;99.90
52709;DHT22;38606;52.986;6.980;2023-05-24T07:10:09;12.90;99.90
52709;DHT22;38606;52.986;6.980;2023-05-24T07:12:36;13.10;99.90
52709;DHT22;38606;52.986;6.980;2023-05-24T07:15:03;12.90;99.90
52709;DHT22;38606;52.986;6.980;2023-05-24T07:17:29;12.80;99.90
52709;DHT22;38606;52.986;6.980;2023-05-24T07:19:55;13.20;99.90
52709;DHT22;38606;52.986;6.980;2023-05-24T07:22:22;12.90;99.90
52709;DHT22;38606;52.986;6.980;2023-05-24T07:24:49;13.30;99.90
52709;DHT22;38606;52.986;6.980;2023-05-24T07:27:15;13.10;99.90
52709;DHT22;38606;52.986;6.980;2023-05-24T07:29:41;14.40;99.90
52709;DHT22;38606;52.986;6.980;2023-05-24T07:32:07;13.40;99.90
52709;DHT22;38606;52.986;6.980;2023-05-24T07:34:33;13.40;99.90
52709;DHT22;38606;52.986;6.980;2023-05-24T07:37:00;13.30;99.90
52709;DHT22;38606;52.986;6.980;2023-05-24T07:39:26;13.60;99.90
52709;DHT22;38606;52.986;6.980;2023-05-24T07:41:55;13.50;99.90
52709;DHT22;38606;52.986;6.980;2023-05-24T07:44:21;13.60;99.90
52709;DHT22;38606;52.986;6.980;2023-05-24T07:46:46;13.90;99.90
52709;DHT22;38606;52.986;6.980;2023-05-24T07:49:12;13.80;99.90
52709;DHT22;38606;52.986;6.980;2023-05-24T07:51:38;14.10;99.90
52709;DHT22;38606;52.986;6.980;2023-05-24T07:54:04;14.20;99.90
52709;DHT22;38606;52.986;6.980;2023-05-24T07:56:30;14.30;99.90
52709;DHT22;38606;52.986;6.980;2023-05-24T07:58:57;14.50;99.90
52709;DHT22;38606;52.986;6.980;2023-05-24T08:01:31;14.40;99.90
52709;DHT22;38606;52.986;6.980;2023-05-24T08:03:59;14.70;99.90
52709;DHT22;38606;52.986;6.980;2023-05-24T08:06:25;14.80;99.90
52709;DHT22;38606;52.986;6.980;2023-05-24T08:08:51;14.70;99.90
52709;DHT22;38606;52.986;6.980;2023-05-24T08:11:18;13.00;99.90
52709;DHT22;38606;52.986;6.980;2023-05-24T08:13:44;14.70;99.90
52709;DHT22;38606;52.986;6.980;2023-05-24T08:16:09;14.60;99.90
52709;DHT22;38606;52.986;6.980;2023-05-24T08:18:35;14.80;99.90
52709;DHT22;38606;52.986;6.980;2023-05-24T08:21:01;15.10;99.90
52709;DHT22;38606;52.986;6.980;2023-05-24T08:23:27;14.90;99.90
52709;DHT22;38606;52.986;6.980;2023-05-24T08:25:57;14.80;99.90
52709;DHT22;38606;52.986;6.980;2023-05-24T08:28:24;14.70;99.90
52709;DHT22;38606;52.986;6.980;2023-05-24T08:30:50;14.70;99.90
52709;DHT22;38606;52.986;6.980;2023-05-24T08:33:16;14.60;99.90
52709;DHT22;38606;52.986;6.980;2023-05-24T08:35:41;14.60;99.90
52709;DHT22;38606;52.986;6.980;2023-05-24T08:38:08;14.70;99.90
52709;DHT22;38606;52.986;6.980;2023-05-24T08:40:33;15.10;99.90
52709;DHT22;38606;52.986;6.980;2023-05-24T08:43:00;15.00;99.90
52709;DHT22;38606;52.986;6.980;2023-05-24T08:45:29;15.30;99.90
52709;DHT22;38606;52.986;6.980;2023-05-24T08:47:56;15.20;99.90
52709;DHT22;38606;52.986;6.980;2023-05-24T08:50:23;15.30;99.90
52709;DHT22;38606;52.986;6.980;2023-05-24T08:52:50;15.30;99.90
52709;DHT22;38606;52.986;6.980;2023-05-24T08:55:17;15.00;99.90
52709;DHT22;38606;52.986;6.980;2023-05-24T08:57:44;15.00;99.90
52709;DHT22;38606;52.986;6.980;2023-05-24T09:00:11;14.70;99.90
52709;DHT22;38606;52.986;6.980;2023-05-24T09:02:39;15.00;99.90
52709;DHT22;38606;52.986;6.980;2023-05-24T09:05:11;14.60;99.90
52709;DHT22;38606;52.986;6.980;2023-05-24T09:07:37;14.60;99.90
52709;DHT22;38606;52.986;6.980;2023-05-24T09:10:07;14.60;99.90
52709;DHT22;38606;52.986;6.980;2023-05-24T09:12:36;14.50;99.90
52709;DHT22;38606;52.986;6.980;2023-05-24T09:15:03;14.60;99.90
52709;DHT22;38606;52.986;6.980;2023-05-24T09:17:33;14.80;99.90
52709;DHT22;38606;52.986;6.980;2023-05-24T09:19:59;15.10;99.90
52709;DHT22;38606;52.986;6.980;2023-05-24T09:22:28;14.90;99.90
52709;DHT22;38606;52.986;6.980;2023-05-24T09:25:02;15.90;99.90
52709;DHT22;38606;52.986;6.980;2023-05-24T09:27:31;15.30;99.90
52709;DHT22;38606;52.986;6.980;2023-05-24T09:29:57;15.30;99.90
52709;DHT22;38606;52.986;6.980;2023-05-24T09:32:23;15.00;99.90
52709;DHT22;38606;52.986;6.980;2023-05-24T09:34:53;15.20;99.90
52709;DHT22;38606;52.986;6.980;2023-05-24T09:37:20;15.00;99.90
52709;DHT22;38606;52.986;6.980;2023-05-24T09:39:48;15.00;99.90
52709;DHT22;38606;52.986;6.980;2023-05-24T09:42:17;15.30;99.90
52709;DHT22;38606;52.986;6.980;2023-05-24T09:45:07;15.20;99.90
52709;DHT22;38606;52.986;6.980;2023-05-24T09:47:36;15.40;99.90
52709;DHT22;38606;52.986;6.980;2023-05-24T09:50:03;15.40;99.90
52709;DHT22;38606;52.986;6.980;2023-05-24T09:52:29;15.20;99.90
52709;DHT22;38606;52.986;6.980;2023-05-24T09:54:55;15.40;99.90
52709;DHT22;38606;52.986;6.980;2023-05-24T09:57:21;15.50;99.90
52709;DHT22;38606;52.986;6.980;2023-05-24T09:59:48;15.50;99.90
52709;DHT22;38606;52.986;6.980;2023-05-24T10:02:15;15.20;99.90
52709;DHT22;38606;52.986;6.980;2023-05-24T10:04:43;15.40;99.90
52709;DHT22;38606;52.986;6.980;2023-05-24T10:07:09;15.20;99.90
52709;DHT22;38606;52.986;6.980;2023-05-24T10:09:37;15.20;99.90
52709;DHT22;38606;52.986;6.980;2023-05-24T10:12:07;15.10;99.90
52709;DHT22;38606;52.986;6.980;2023-05-24T10:14:37;15.50;99.90
52709;DHT22;38606;52.986;6.980;2023-05-24T10:17:06;15.40;99.90
52709;DHT22;38606;52.986;6.980;2023-05-24T10:19:33;15.70;99.90
52709;DHT22;38606;52.986;6.980;2023-05-24T10:22:00;15.70;99.90
52709;DHT22;38606;52.986;6.980;2023-05-24T10:24:34;15.80;99.90
52709;DHT22;38606;52.986;6.980;2023-05-24T10:27:04;15.50;99.90
52709;DHT22;38606;52.986;6.980;2023-05-24T10:29:58;15.50;99.90
52709;DHT22;38606;52.986;6.980;2023-05-24T10:32:26;15.30;99.90
52709;DHT22;38606;52.986;6.980;2023-05-24T10:35:00;15.30;99.90
52709;DHT22;38606;52.986;6.980;2023-05-24T10:37:27;15.70;99.90
52709;DHT22;38606;52.986;6.980;2023-05-24T10:39:55;15.70;99.90
52709;DHT22;38606;52.986;6.980;2023-05-24T10:42:20;15.80;99.90
52709;DHT22;38606;52.986;6.980;2023-05-24T10:44:47;15.80;99.90
52709;DHT22;38606;52.986;6.980;2023-05-24T10:47:13;15.80;99.90
52709;DHT22;38606;52.986;6.980;2023-05-24T10:49:53;16.10;99.90
52709;DHT22;38606;52.986;6.980;2023-05-24T10:52:19;16.20;99.90
52709;DHT22;38606;52.986;6.980;2023-05-24T10:55:04;16.20;99.90
52709;DHT22;38606;52.986;6.980;2023-05-24T10:57:30;16.50;99.90
52709;DHT22;38606;52.986;6.980;2023-05-24T11:03:06;16.40;99.90
52709;DHT22;38606;52.986;6.980;2023-05-24T11:05:53;16.00;99.90
52709;DHT22;38606;52.986;6.980;2023-05-24T11:08:29;15.80;99.90
52709;DHT22;38606;52.986;6.980;2023-05-24T11:11:10;15.70;99.90
52709;DHT22;38606;52.986;6.980;2023-05-24T11:13:40;15.60;99.90
52709;DHT22;38606;52.986;6.980;2023-05-24T11:16:06;15.80;99.90
52709;DHT22;38606;52.986;6.980;2023-05-24T11:18:32;15.70;99.90
52709;DHT22;38606;52.986;6.980;2023-05-24T11:21:04;15.70;99.90
52709;DHT22;38606;52.986;6.980;2023-05-24T11:23:30;15.70;99.90
52709;DHT22;38606;52.986;6.980;2023-05-24T11:25:56;15.60;99.90
52709;DHT22;38606;52.986;6.980;2023-05-24T11:28:23;15.70;99.90
52709;DHT22;38606;52.986;6.980;2023-05-24T11:30:49;15.80;99.90
52709;DHT22;38606;52.986;6.980;2023-05-24T11:33:22;15.80;99.90
52709;DHT22;38606;52.986;6.980;2023-05-24T11:35:53;16.00;99.90
52709;DHT22;38606;52.986;6.980;2023-05-24T11:38:20;15.70;99.90
52709;DHT22;38606;52.986;6.980;2023-05-24T11:40:47;16.30;99.90
52709;DHT22;38606;52.986;6.980;2023-05-24T11:43:16;16.20;99.90
52709;DHT22;38606;52.986;6.980;2023-05-24T11:45:43;16.50;99.90
52709;DHT22;38606;52.986;6.980;2023-05-24T11:48:10;16.40;99.90
52709;DHT22;38606;52.986;6.980;2023-05-24T11:50:40;16.30;99.90
52709;DHT22;38606;52.986;6.980;2023-05-24T11:53:12;16.40;99.90
52709;DHT22;38606;52.986;6.980;2023-05-24T11:55:39;16.30;99.90
52709;DHT22;38606;52.986;6.980;2023-05-24T11:58:22;16.30;99.90
52709;DHT22;38606;52.986;6.980;2023-05-24T12:00:49;16.30;99.90
52709;DHT22;38606;52.986;6.980;2023-05-24T12:03:15;16.40;99.90
52709;DHT22;38606;52.986;6.980;2023-05-24T12:05:42;16.20;99.90
52709;DHT22;38606;52.986;6.980;2023-05-24T12:08:10;16.30;99.90
52709;DHT22;38606;52.986;6.980;2023-05-24T12:10:38;16.30;99.90
52709;DHT22;38606;52.986;6.980;2023-05-24T12:13:05;16.30;99.90
52709;DHT22;38606;52.986;6.980;2023-05-24T12:15:32;16.40;99.90
52709;DHT22;38606;52.986;6.980;2023-05-24T12:17:58;16.30;99.90
52709;DHT22;38606;52.986;6.980;2023-05-24T12:20:26;16.10;99.90
52709;DHT22;38606;52.986;6.980;2023-05-24T12:22:54;15.90;99.90
52709;DHT22;38606;52.986;6.980;2023-05-24T12:25:21;16.00;99.90
52709;DHT22;38606;52.986;6.980;2023-05-24T12:27:54;15.80;99.90
52709;DHT22;38606;52.986;6.980;2023-05-24T12:30:30;16.00;99.90
52709;DHT22;38606;52.986;6.980;2023-05-24T12:32:56;15.60;99.90
52709;DHT22;38606;52.986;6.980;2023-05-24T12:35:22;15.60;99.90
52709;DHT22;38606;52.986;6.980;2023-05-24T12:37:48;15.60;99.90
52709;DHT22;38606;52.986;6.980;2023-05-24T12:40:19;15.90;99.90
52709;DHT22;38606;52.986;6.980;2023-05-24T12:42:55;16.00;99.90
52709;DHT22;38606;52.986;6.980;2023-05-24T12:45:25;16.20;99.90
52709;DHT22;38606;52.986;6.980;2023-05-24T12:47:57;16.30;99.90
52709;DHT22;38606;52.986;6.980;2023-05-24T12:50:25;16.10;99.90
52709;DHT22;38606;52.986;6.980;2023-05-24T12:52:51;16.50;99.90
52709;DHT22;38606;52.986;6.980;2023-05-24T12:55:21;16.60;99.90
52709;DHT22;38606;52.986;6.980;2023-05-24T12:57:47;16.80;99.90
52709;DHT22;38606;52.986;6.980;2023-05-24T13:00:22;17.00;99.90
52709;DHT22;38606;52.986;6.980;2023-05-24T13:02:49;17.00;99.90
52709;DHT22;38606;52.986;6.980;2023-05-24T13:05:17;16.80;99.90
52709;DHT22;38606;52.986;6.980;2023-05-24T13:07:44;16.90;99.90
52709;DHT22;38606;52.986;6.980;2023-05-24T13:10:10;17.20;99.90
52709;DHT22;38606;52.986;6.980;2023-05-24T13:12:36;17.20;99.90
52709;DHT22;38606;52.986;6.980;2023-05-24T13:15:03;17.10;99.90
52709;DHT22;38606;52.986;6.980;2023-05-24T13:17:30;17.10;99.90
52709;DHT22;38606;52.986;6.980;2023-05-24T13:19:57;16.90;99.90
52709;DHT22;38606;52.986;6.980;2023-05-24T13:22:23;17.00;99.90
52709;DHT22;38606;52.986;6.980;2023-05-24T13:24:50;15.20;99.90
52709;DHT22;38606;52.986;6.980;2023-05-24T13:27:15;16.90;99.90
52709;DHT22;38606;52.986;6.980;2023-05-24T13:29:41;16.50;99.90
52709;DHT22;38606;52.986;6.980;2023-05-24T13:32:07;16.80;99.90
52709;DHT22;38606;52.986;6.980;2023-05-24T13:34:32;16.40;99.90
52709;DHT22;38606;52.986;6.980;2023-05-24T13:36:58;16.60;99.90
52709;DHT22;38606;52.986;6.980;2023-05-24T13:39:27;16.60;99.90
52709;DHT22;38606;52.986;6.980;2023-05-24T13:41:52;16.60;99.90
52709;DHT22;38606;52.986;6.980;2023-05-24T13:44:18;16.20;99.90
52709;DHT22;38606;52.986;6.980;2023-05-24T13:46:44;16.20;99.90
52709;DHT22;38606;52.986;6.980;2023-05-24T13:49:10;16.40;99.90
52709;DHT22;38606;52.986;6.980;2023-05-24T13:51:37;16.20;99.90
52709;DHT22;38606;52.986;6.980;2023-05-24T13:54:03;16.30;99.90
52709;DHT22;38606;52.986;6.980;2023-05-24T13:56:32;16.00;99.90
52709;DHT22;38606;52.986;6.980;2023-05-24T13:59:02;16.10;99.90
52709;DHT22;38606;52.986;6.980;2023-05-24T14:01:28;16.00;99.90
52709;DHT22;38606;52.986;6.980;2023-05-24T14:03:54;16.00;99.90
52709;DHT22;38606;52.986;6.980;2023-05-24T14:06:20;16.20;99.90
52709;DHT22;38606;52.986;6.980;2023-05-24T14:08:47;16.20;99.90
52709;DHT22;38606;52.986;6.980;2023-05-24T14:11:12;16.10;99.90
52709;DHT22;38606;52.986;6.980;2023-05-24T14:13:42;16.30;99.90
52709;DHT22;38606;52.986;6.980;2023-05-24T14:16:08;16.20;99.90
52709;DHT22;38606;52.986;6.980;2023-05-24T14:18:35;16.10;99.90
52709;DHT22;38606;52.986;6.980;2023-05-24T14:21:01;16.10;99.90
52709;DHT22;38606;52.986;6.980;2023-05-24T14:23:27;16.30;99.90
52709;DHT22;38606;52.986;6.980;2023-05-24T14:25:56;16.20;99.90
52709;DHT22;38606;52.986;6.980;2023-05-24T14:28:22;16.00;99.90
52709;DHT22;38606;52.986;6.980;2023-05-24T14:30:47;16.30;99.90
52709;DHT22;38606;52.986;6.980;2023-05-24T14:33:13;16.30;99.90
52709;DHT22;38606;52.986;6.980;2023-05-24T14:35:39;16.40;99.90
52709;DHT22;38606;52.986;6.980;2023-05-24T14:38:06;16.40;99.90
52709;DHT22;38606;52.986;6.980;2023-05-24T14:40:33;16.40;99.90
52709;DHT22;38606;52.986;6.980;2023-05-24T14:43:04;16.60;99.90
52709;DHT22;38606;52.986;6.980;2023-05-24T14:45:31;16.50;99.90
52709;DHT22;38606;52.986;6.980;2023-05-24T14:47:57;16.80;99.90
52709;DHT22;38606;52.986;6.980;2023-05-24T14:50:23;16.40;99.90
52709;DHT22;38606;52.986;6.980;2023-05-24T14:52:49;16.60;99.90
52709;DHT22;38606;52.986;6.980;2023-05-24T14:55:15;16.80;99.90
52709;DHT22;38606;52.986;6.980;2023-05-24T14:57:41;16.60;99.90
52709;DHT22;38606;52.986;6.980;2023-05-24T15:00:08;16.90;99.90
52709;DHT22;38606;52.986;6.980;2023-05-24T15:02:35;16.80;99.90
52709;DHT22;38606;52.986;6.980;2023-05-24T15:05:04;16.70;99.90
52709;DHT22;38606;52.986;6.980;2023-05-24T15:07:30;16.90;99.90
52709;DHT22;38606;52.986;6.980;2023-05-24T15:09:56;16.90;99.90
52709;DHT22;38606;52.986;6.980;2023-05-24T15:12:22;16.80;99.90
52709;DHT22;38606;52.986;6.980;2023-05-24T15:14:48;16.70;99.90
52709;DHT22;38606;52.986;6.980;2023-05-24T15:17:14;16.70;99.90
52709;DHT22;38606;52.986;6.980;2023-05-24T15:19:40;16.90;99.90
52709;DHT22;38606;52.986;6.980;2023-05-24T15:22:06;16.90;99.90
52709;DHT22;38606;52.986;6.980;2023-05-24T15:24:32;16.80;99.90
52709;DHT22;38606;52.986;6.980;2023-05-24T15:26:58;16.50;99.90
52709;DHT22;38606;52.986;6.980;2023-05-24T15:29:23;16.30;99.90
52709;DHT22;38606;52.986;6.980;2023-05-24T15:31:49;16.50;99.90
52709;DHT22;38606;52.986;6.980;2023-05-24T15:34:15;16.60;99.90
52709;DHT22;38606;52.986;6.980;2023-05-24T15:36:41;16.30;99.90
52709;DHT22;38606;52.986;6.980;2023-05-24T15:39:07;16.20;99.90
52709;DHT22;38606;52.986;6.980;2023-05-24T15:41:34;16.40;99.90
52709;DHT22;38606;52.986;6.980;2023-05-24T15:44:01;16.80;99.90
52709;DHT22;38606;52.986;6.980;2023-05-24T15:46:34;16.30;99.90
52709;DHT22;38606;52.986;6.980;2023-05-24T15:49:01;16.30;99.90
52709;DHT22;38606;52.986;6.980;2023-05-24T15:51:26;16.60;99.90
52709;DHT22;38606;52.986;6.980;2023-05-24T15:53:52;16.60;99.90